Time;durP1;ratioP1;P1;durP2;ratioP2;P2;SDS_P1;SDS_P2;PMS_P1;PMS_P2;Temp;Humidity;BMP_temperature;BMP_pressure;BME280_temperature;BME280_humidity;BME280_pressure;Samples;Min_cycle;Max_cycle;Signal;HPM_P1;HPM_P2
2021/10/28 00:13:14;;;;;;;0.57;0.20;;;;;;;;;;5034981;28;20040;-68
2021/10/28 00:15:43;;;;;;;0.60;0.30;;;;;;;;;;5034915;28;20049;-69
2021/10/28 00:18:12;;;;;;;0.77;0.30;;;;;;;;;;5034325;28;20028;-68
2021/10/28 00:20:38;;;;;;;0.35;0.20;;;;;;;;;;5034698;28;20025;-67
2021/10/28 00:23:04;;;;;;;0.65;0.22;;;;;;;;;;5034877;28;20045;-68
2021/10/28 00:25:31;;;;;;;0.30;0.10;;;;;;;;;;5033552;28;20084;-67
2021/10/28 00:27:57;;;;;;;0.60;0.22;;;;;;;;;;5034815;28;20460;-68
2021/10/28 00:30:23;;;;;;;0.40;0.20;;;;;;;;;;5034847;28;20132;-68
2021/10/28 00:32:50;;;;;;;0.17;0.10;;;;;;;;;;5033178;28;20064;-68
2021/10/28 00:35:17;;;;;;;0.82;0.30;;;;;;;;;;5034504;28;20045;-69
2021/10/28 00:37:42;;;;;;;0.47;0.22;;;;;;;;;;5034262;28;20455;-67
2021/10/28 00:40:09;;;;;;;0.30;0.30;;;;;;;;;;5033341;28;20117;-67
2021/10/28 00:42:36;;;;;;;1.52;0.03;;;;;;;;;;5034481;28;20029;-68
2021/10/28 00:45:01;;;;;;;0.45;0.10;;;;;;;;;;5034253;28;20020;-67
2021/10/28 00:47:31;;;;;;;1.50;0.25;;;;;;;;;;5034282;28;20013;-67
2021/10/28 00:49:57;;;;;;;0.32;0.22;;;;;;;;;;5034373;28;20021;-68
2021/10/28 00:52:23;;;;;;;0.10;0.10;;;;;;;;;;5034225;28;20511;-67
2021/10/28 00:54:49;;;;;;;1.65;0.30;;;;;;;;;;5034263;28;20492;-67
2021/10/28 00:57:15;;;;;;;0.70;0.40;;;;;;;;;;5034299;28;20025;-68
2021/10/28 00:59:40;;;;;;;0.22;0.20;;;;;;;;;;5033878;28;20022;-67
2021/10/28 01:02:06;;;;;;;0.30;0.10;;;;;;;;;;5032838;28;20400;-68
2021/10/28 01:04:31;;;;;;;0.37;0.13;;;;;;;;;;5034035;28;20056;-68
2021/10/28 01:06:57;;;;;;;0.93;0.17;;;;;;;;;;5034022;28;20487;-67
2021/10/28 01:09:24;;;;;;;0.15;0.05;;;;;;;;;;5034193;28;20025;-68
2021/10/28 01:11:52;;;;;;;0.43;0.08;;;;;;;;;;5033887;28;20036;-68
2021/10/28 01:14:18;;;;;;;0.40;0.05;;;;;;;;;;5032965;28;20467;-68
2021/10/28 01:16:43;;;;;;;0.40;0.10;;;;;;;;;;5032483;28;20065;-69
2021/10/28 01:19:09;;;;;;;0.35;0.20;;;;;;;;;;5033889;28;20416;-67
2021/10/28 01:21:34;;;;;;;0.30;0.20;;;;;;;;;;5033392;28;20018;-68
2021/10/28 01:24:01;;;;;;;0.47;0.10;;;;;;;;;;5033984;28;20092;-68
2021/10/28 01:26:27;;;;;;;1.65;0.20;;;;;;;;;;5033576;28;20020;-67
2021/10/28 01:28:55;;;;;;;0.70;0.17;;;;;;;;;;5033637;28;20013;-68
2021/10/28 01:31:22;;;;;;;0.68;0.10;;;;;;;;;;5033541;28;20025;-68
2021/10/28 01:33:48;;;;;;;0.20;0.00;;;;;;;;;;5033733;28;20021;-67
2021/10/28 01:36:13;;;;;;;0.40;0.20;;;;;;;;;;5033666;28;20029;-67
2021/10/28 01:38:39;;;;;;;0.50;0.20;;;;;;;;;;5032048;28;20045;-67
2021/10/28 01:41:04;;;;;;;0.30;0.10;;;;;;;;;;5033639;28;20668;-68
2021/10/28 01:43:31;;;;;;;0.38;0.03;;;;;;;;;;5032228;28;20022;-69
2021/10/28 01:45:56;;;;;;;0.30;0.20;;;;;;;;;;5033344;28;20014;-67
2021/10/28 01:48:25;;;;;;;0.25;0.10;;;;;;;;;;5033740;28;20064;-68
2021/10/28 01:50:50;;;;;;;0.57;0.13;;;;;;;;;;5033258;28;20029;-67
2021/10/28 01:53:16;;;;;;;0.35;0.10;;;;;;;;;;5033337;28;20044;-68
2021/10/28 01:55:42;;;;;;;0.57;0.10;;;;;;;;;;5033384;28;20021;-68
2021/10/28 01:58:07;;;;;;;0.75;0.10;;;;;;;;;;5033238;28;20065;-68
2021/10/28 02:00:33;;;;;;;0.10;0.10;;;;;;;;;;5031783;28;20064;-67
2021/10/28 02:02:58;;;;;;;0.40;0.25;;;;;;;;;;5033302;28;20060;-67
2021/10/28 02:05:24;;;;;;;0.47;0.10;;;;;;;;;;5033319;28;20515;-68
2021/10/28 02:07:50;;;;;;;0.70;0.10;;;;;;;;;;5033018;28;20394;-67
2021/10/28 02:10:18;;;;;;;0.22;0.10;;;;;;;;;;5033068;28;20119;-68
2021/10/28 02:12:46;;;;;;;0.15;0.00;;;;;;;;;;5032932;28;20026;-67
2021/10/28 02:15:15;;;;;;;0.32;0.20;;;;;;;;;;5033358;28;20013;-67
2021/10/28 02:17:42;;;;;;;0.20;0.20;;;;;;;;;;5033201;28;20017;-67
2021/10/28 02:20:08;;;;;;;0.10;0.10;;;;;;;;;;5033005;28;20032;-67
2021/10/28 02:22:34;;;;;;;0.10;0.10;;;;;;;;;;5032837;28;20017;-68
2021/10/28 02:25:00;;;;;;;0.57;0.30;;;;;;;;;;5033225;28;20009;-68
2021/10/28 02:27:26;;;;;;;0.40;0.10;;;;;;;;;;5032963;28;20060;-67
2021/10/28 02:29:51;;;;;;;0.75;0.10;;;;;;;;;;5033079;28;20092;-68
2021/10/28 02:32:17;;;;;;;0.80;0.10;;;;;;;;;;5033085;28;20155;-68
2021/10/28 02:34:42;;;;;;;0.10;0.10;;;;;;;;;;5031759;28;20045;-67
2021/10/28 02:37:08;;;;;;;1.75;0.28;;;;;;;;;;5032074;28;20459;-68
2021/10/28 02:39:33;;;;;;;0.10;0.00;;;;;;;;;;5032936;28;20105;-67
2021/10/28 02:41:59;;;;;;;0.20;0.08;;;;;;;;;;5036348;28;20411;-66
2021/10/28 02:44:25;;;;;;;0.30;0.10;;;;;;;;;;5036491;28;20014;-68
2021/10/28 02:46:50;;;;;;;1.38;0.20;;;;;;;;;;5036660;28;20028;-68
2021/10/28 02:49:15;;;;;;;0.32;0.17;;;;;;;;;;5036504;28;20030;-67
2021/10/28 02:51:47;;;;;;;0.95;0.10;;;;;;;;;;5036583;28;20025;-67
2021/10/28 02:54:16;;;;;;;0.30;0.10;;;;;;;;;;5036630;28;20408;-67
2021/10/28 02:56:42;;;;;;;0.40;0.20;;;;;;;;;;5036324;28;20025;-68
2021/10/28 02:59:07;;;;;;;0.45;0.00;;;;;;;;;;5036234;28;20084;-68
2021/10/28 03:01:33;;;;;;;0.37;0.10;;;;;;;;;;5035815;28;20191;-67
2021/10/28 03:03:58;;;;;;;0.35;0.10;;;;;;;;;;5036342;28;20300;-68
2021/10/28 03:06:23;;;;;;;0.43;0.10;;;;;;;;;;5036184;28;20021;-67
2021/10/28 03:08:50;;;;;;;0.10;0.00;;;;;;;;;;5035951;28;20013;-67
2021/10/28 03:11:16;;;;;;;0.25;0.20;;;;;;;;;;5035803;28;20280;-67
2021/10/28 03:13:41;;;;;;;0.40;0.10;;;;;;;;;;5036075;28;20025;-68
2021/10/28 03:16:16;;;;;;;0.35;0.10;;;;;;;;;;5035923;28;20025;-68
2021/10/28 03:26:54;;;;;;;1.08;0.17;;;;;;;;;;5036030;28;20033;-68
2021/10/28 03:29:19;;;;;;;0.10;0.00;;;;;;;;;;5036084;28;20017;-67
2021/10/28 03:31:46;;;;;;;0.20;0.10;;;;;;;;;;5035547;28;20389;-67
2021/10/28 03:34:11;;;;;;;0.60;0.10;;;;;;;;;;5035799;28;20381;-68
2021/10/28 03:36:44;;;;;;;0.32;0.10;;;;;;;;;;5035397;28;20026;-68
2021/10/28 03:39:26;;;;;;;0.52;0.10;;;;;;;;;;5035586;28;20052;-66
2021/10/28 04:01:03;;;;;;;;;;;;;;;;;;5035122;28;20045;-66
2021/10/28 04:04:04;;;;;;;0.28;0.25;;;;;;;;;;5034623;28;19988;-67
2021/10/28 04:06:24;;;;;;;1.30;0.10;;;;;;;;;;5054081;28;20033;-66
2021/10/28 04:30:19;;;;;;;0.30;0.20;;;;;;;;;;5012774;28;20089;-66
2021/10/28 04:32:44;;;;;;;0.88;0.20;;;;;;;;;;5012346;28;20041;-66
2021/10/28 04:35:10;;;;;;;0.10;0.10;;;;;;;;;;5012712;28;20126;-66
2021/10/28 04:37:39;;;;;;;0.10;0.03;;;;;;;;;;5008339;28;20022;-65
2021/10/28 04:40:05;;;;;;;0.28;0.10;;;;;;;;;;4992380;28;20038;-65
2021/10/28 04:42:30;;;;;;;0.00;0.00;;;;;;;;;;4992723;28;20022;-66
2021/10/28 04:44:55;;;;;;;1.33;0.38;;;;;;;;;;4992236;28;20110;-66
2021/10/28 04:47:21;;;;;;;0.40;0.10;;;;;;;;;;4992699;28;20026;-65
2021/10/28 04:49:47;;;;;;;0.55;0.20;;;;;;;;;;4992502;28;20014;-66
2021/10/28 04:52:12;;;;;;;0.43;0.10;;;;;;;;;;4976247;28;20105;-66
2021/10/28 04:54:38;;;;;;;0.00;0.00;;;;;;;;;;5027457;28;20422;-65
2021/10/28 04:57:04;;;;;;;0.45;0.15;;;;;;;;;;5034130;28;20021;-67
2021/10/28 04:59:29;;;;;;;0.22;0.22;;;;;;;;;;5033861;28;20064;-66
2021/10/28 05:01:54;;;;;;;1.30;0.20;;;;;;;;;;5033614;28;20120;-66
2021/10/28 05:04:20;;;;;;;0.17;0.10;;;;;;;;;;5033150;28;20018;-65
2021/10/28 05:06:45;;;;;;;0.52;0.08;;;;;;;;;;5033703;28;20013;-66
2021/10/28 05:09:15;;;;;;;0.08;0.08;;;;;;;;;;5033489;28;20372;-66
2021/10/28 05:11:44;;;;;;;0.75;0.20;;;;;;;;;;5033716;28;20020;-67
2021/10/28 05:14:09;;;;;;;0.57;0.10;;;;;;;;;;5033681;28;20025;-65
2021/10/28 05:16:34;;;;;;;0.10;0.08;;;;;;;;;;5033542;28;20021;-66
2021/10/28 05:18:59;;;;;;;1.13;0.20;;;;;;;;;;5033557;28;20485;-65
2021/10/28 05:21:25;;;;;;;0.55;0.25;;;;;;;;;;5033419;28;20139;-65
2021/10/28 05:23:50;;;;;;;0.40;0.03;;;;;;;;;;5033172;28;20515;-66
2021/10/28 05:26:15;;;;;;;0.40;0.10;;;;;;;;;;5033617;28;20057;-66
2021/10/28 05:28:40;;;;;;;0.08;0.00;;;;;;;;;;5033426;28;20025;-65
2021/10/28 05:31:06;;;;;;;0.50;0.20;;;;;;;;;;5033561;28;20017;-66
2021/10/28 05:33:31;;;;;;;0.17;0.10;;;;;;;;;;5033276;28;20025;-65
2021/10/28 05:35:56;;;;;;;0.10;0.10;;;;;;;;;;5033384;28;20706;-66
2021/10/28 05:38:21;;;;;;;0.28;0.05;;;;;;;;;;5033312;28;20499;-66
2021/10/28 05:40:47;;;;;;;0.20;0.03;;;;;;;;;;5033147;28;20032;-66
2021/10/28 05:43:12;;;;;;;0.90;0.20;;;;;;;;;;5033111;28;20068;-65
2021/10/28 05:45:38;;;;;;;1.70;0.20;;;;;;;;;;5033128;28;20017;-66
2021/10/28 05:48:04;;;;;;;0.47;0.30;;;;;;;;;;5033375;28;20036;-65
2021/10/28 05:50:30;;;;;;;0.43;0.22;;;;;;;;;;5032920;28;20033;-65
2021/10/28 05:52:57;;;;;;;0.03;0.00;;;;;;;;;;5033472;28;20041;-66
2021/10/28 05:55:24;;;;;;;0.28;0.00;;;;;;;;;;5032958;28;20025;-66
2021/10/28 05:57:51;;;;;;;0.40;0.10;;;;;;;;;;5032890;28;20025;-67
2021/10/28 06:00:18;;;;;;;0.60;0.20;;;;;;;;;;5033147;28;20032;-66
2021/10/28 06:02:43;;;;;;;0.30;0.10;;;;;;;;;;5032113;28;20403;-65
2021/10/28 06:05:08;;;;;;;1.13;0.30;;;;;;;;;;5032210;28;20030;-66
2021/10/28 06:07:34;;;;;;;0.50;0.10;;;;;;;;;;5032651;28;20270;-65
2021/10/28 06:09:59;;;;;;;0.20;0.10;;;;;;;;;;5032523;28;20024;-66
2021/10/28 06:12:27;;;;;;;0.90;0.10;;;;;;;;;;5032475;28;20481;-66
2021/10/28 06:14:52;;;;;;;0.30;0.10;;;;;;;;;;5032217;28;20010;-66
2021/10/28 06:17:19;;;;;;;0.20;0.10;;;;;;;;;;5036623;28;20040;-66
2021/10/28 06:19:44;;;;;;;0.47;0.10;;;;;;;;;;5035848;28;20099;-66
2021/10/28 06:22:10;;;;;;;0.70;0.20;;;;;;;;;;5035621;28;20464;-66
2021/10/28 06:24:36;;;;;;;0.40;0.20;;;;;;;;;;5036501;28;20021;-66
2021/10/28 06:27:01;;;;;;;0.35;0.15;;;;;;;;;;5038966;28;20014;-66
2021/10/28 06:29:27;;;;;;;0.00;0.00;;;;;;;;;;5034355;28;20033;-68
2021/10/28 06:31:52;;;;;;;1.00;0.08;;;;;;;;;;5035017;28;20021;-66
2021/10/28 06:34:22;;;;;;;0.20;0.10;;;;;;;;;;5035510;28;20329;-65
2021/10/28 06:36:48;;;;;;;1.23;0.20;;;;;;;;;;5035146;28;20059;-67
2021/10/28 06:39:14;;;;;;;0.20;0.20;;;;;;;;;;5035405;28;20105;-66
2021/10/28 06:41:39;;;;;;;0.75;0.10;;;;;;;;;;5035099;28;20583;-66
2021/10/28 06:44:04;;;;;;;1.35;0.32;;;;;;;;;;5035844;28;20036;-67
2021/10/28 06:46:31;;;;;;;0.13;0.10;;;;;;;;;;5035619;28;20027;-66
2021/10/28 06:48:56;;;;;;;0.13;0.10;;;;;;;;;;5035691;28;20391;-66
2021/10/28 06:51:22;;;;;;;0.30;0.05;;;;;;;;;;5035546;28;20022;-67
2021/10/28 06:54:17;;;;;;;0.75;0.20;;;;;;;;;;5035396;28;20825;-66
2021/10/28 07:04:29;;;;;;;1.20;0.10;;;;;;;;;;5035413;28;20029;-66
2021/10/28 07:06:55;;;;;;;0.17;0.15;;;;;;;;;;5035195;28;20017;-67
2021/10/28 07:09:28;;;;;;;0.52;0.32;;;;;;;;;;5035206;28;20408;-66
2021/10/28 07:14:41;;;;;;;0.60;0.30;;;;;;;;;;5034854;28;20024;-67
2021/10/28 07:24:54;;;;;;;0.75;0.00;;;;;;;;;;5034274;28;20100;-66
2021/10/28 07:38:41;;;;;;;0.35;0.10;;;;;;;;;;4881650;29;20037;-65
2021/10/28 07:57:52;;;;;;;0.17;0.15;;;;;;;;;;4879105;29;20389;-66
2021/10/28 08:00:33;;;;;;;0.05;0.00;;;;;;;;;;4878818;29;20469;-65
2021/10/28 08:06:08;;;;;;;1.65;0.35;;;;;;;;;;4859953;29;20060;-65
2021/10/28 08:19:46;;;;;;;0.68;0.40;;;;;;;;;;4934883;29;20046;-65
2021/10/28 08:22:17;;;;;;;0.00;0.00;;;;;;;;;;4935076;29;20120;-66
2021/10/28 08:30:12;;;;;;;0.25;0.10;;;;;;;;;;4934885;29;20079;-66
2021/10/28 08:32:37;;;;;;;0.00;0.00;;;;;;;;;;4934895;29;20498;-66
2021/10/28 08:35:03;;;;;;;0.35;0.20;;;;;;;;;;4935043;29;20109;-66
2021/10/28 08:37:53;;;;;;;0.88;0.20;;;;;;;;;;4931706;29;20112;-66
2021/10/28 08:40:15;;;;;;;0.80;0.35;;;;;;;;;;4915430;29;20100;-66
2021/10/28 08:42:41;;;;;;;0.20;0.03;;;;;;;;;;4948765;28;20415;-66
2021/10/28 08:45:07;;;;;;;1.08;0.10;;;;;;;;;;4992644;28;20472;-65
2021/10/28 08:47:32;;;;;;;0.70;0.20;;;;;;;;;;4992296;28;20069;-65
2021/10/28 08:50:05;;;;;;;0.73;0.10;;;;;;;;;;4992331;28;20034;-66
2021/10/28 08:55:08;;;;;;;0.22;0.10;;;;;;;;;;5006714;28;20025;-66
2021/10/28 09:25:22;;;;;;;1.30;0.73;;;;;;;;;;5032910;28;20032;-66
2021/10/28 09:27:58;;;;;;;0.32;0.10;;;;;;;;;;5032271;28;20041;-66
2021/10/28 09:30:39;;;;;;;0.55;0.03;;;;;;;;;;5032393;28;20388;-66
2021/10/28 09:33:05;;;;;;;0.38;0.20;;;;;;;;;;5032613;28;20025;-66
2021/10/28 09:35:52;;;;;;;0.82;0.20;;;;;;;;;;5032553;28;20096;-65
2021/10/28 09:43:35;;;;;;;0.68;0.10;;;;;;;;;;5032520;28;20032;-66
2021/10/28 09:44:31;;;;;;;0.30;0.20;;;;;;;;;;5032090;28;20036;-65
2021/10/28 09:46:51;;;;;;;0.68;0.20;;;;;;;;;;5031957;28;20021;-66
2021/10/28 09:51:51;;;;;;;0.20;0.10;;;;;;;;;;5031866;28;20052;-67
2021/10/28 09:54:37;;;;;;;0.20;0.10;;;;;;;;;;5032462;28;20018;-66
2021/10/28 09:59:46;;;;;;;0.23;0.13;;;;;;;;;;5032297;28;20059;-66
2021/10/28 10:02:15;;;;;;;1.20;0.17;;;;;;;;;;4988458;28;1278488;-65
2021/10/28 10:04:42;;;;;;;0.40;0.10;;;;;;;;;;5032872;28;20061;-67
2021/10/28 10:07:08;;;;;;;0.90;0.20;;;;;;;;;;5032993;28;20052;-66
2021/10/28 10:09:34;;;;;;;0.20;0.00;;;;;;;;;;5032764;28;20029;-65
2021/10/28 10:12:00;;;;;;;1.25;0.10;;;;;;;;;;5033044;28;20017;-66
2021/10/28 10:14:25;;;;;;;2.08;0.20;;;;;;;;;;5033052;28;20017;-66
2021/10/28 10:16:51;;;;;;;0.22;0.10;;;;;;;;;;5032870;28;20055;-66
2021/10/28 10:19:18;;;;;;;0.10;0.10;;;;;;;;;;5032956;28;20611;-66
2021/10/28 10:21:46;;;;;;;0.30;0.10;;;;;;;;;;5032664;28;20373;-66
2021/10/28 10:24:27;;;;;;;0.10;0.03;;;;;;;;;;5033030;28;20017;-65
2021/10/28 11:03:12;;;;;;;0.80;0.20;;;;;;;;;;5033020;28;20028;-66
2021/10/28 11:20:14;;;;;;;0.63;0.20;;;;;;;;;;4955923;29;20032;-66
2021/10/28 12:15:15;;;;;;;0.43;0.10;;;;;;;;;;5034068;28;20026;-66
2021/10/28 12:23:34;;;;;;;0.30;0.10;;;;;;;;;;5034688;28;20687;-66
2021/10/28 12:45:51;;;;;;;1.23;0.13;;;;;;;;;;5029290;28;20052;-65
2021/10/28 12:50:54;;;;;;;0.52;0.00;;;;;;;;;;5034585;28;20100;-67
2021/10/28 12:53:44;;;;;;;0.73;0.10;;;;;;;;;;5033965;28;20021;-66
2021/10/28 12:56:26;;;;;;;0.30;0.15;;;;;;;;;;5032369;28;20029;-67
2021/10/28 13:35:22;;;;;;;0.10;0.10;;;;;;;;;;5001476;28;20116;-66
2021/10/28 13:38:12;;;;;;;0.63;0.10;;;;;;;;;;5009160;28;20441;-66
2021/10/28 13:56:52;;;;;;;0.20;0.10;;;;;;;;;;5033065;28;20021;-66
2021/10/28 13:59:34;;;;;;;0.52;0.10;;;;;;;;;;5032564;28;20487;-67
2021/10/28 14:34:39;;;;;;;1.17;0.40;;;;;;;;;;5035828;28;20037;-66
2021/10/28 14:39:32;;;;;;;0.20;0.10;;;;;;;;;;5030250;28;20111;-66
2021/10/28 15:28:43;;;;;;;1.00;0.63;;;;;;;;;;5013676;28;20105;-66
2021/10/28 15:31:37;;;;;;;0.55;0.20;;;;;;;;;;5013531;28;20065;-67
2021/10/28 15:34:29;;;;;;;0.30;0.10;;;;;;;;;;5013660;28;20026;-67
2021/10/28 15:39:33;;;;;;;0.93;0.10;;;;;;;;;;5034716;28;20021;-66
2021/10/28 15:47:57;;;;;;;0.40;0.07;;;;;;;;;;5035448;28;20151;-67
2021/10/28 16:22:49;;;;;;;0.13;0.10;;;;;;;;;;5034835;28;20384;-66
2021/10/28 16:25:15;;;;;;;0.22;0.15;;;;;;;;;;5034404;28;20036;-66
2021/10/28 16:27:40;;;;;;;0.73;0.20;;;;;;;;;;5034440;28;20064;-66
2021/10/28 16:30:07;;;;;;;0.40;0.10;;;;;;;;;;5034205;28;20072;-66
2021/10/28 16:32:32;;;;;;;0.30;0.20;;;;;;;;;;5034442;28;20044;-66
2021/10/28 16:34:57;;;;;;;2.35;0.25;;;;;;;;;;5034177;28;20072;-66
2021/10/28 16:37:25;;;;;;;0.63;0.25;;;;;;;;;;5034506;28;20358;-66
2021/10/28 16:39:51;;;;;;;1.23;0.40;;;;;;;;;;5034047;28;20017;-66
2021/10/28 16:42:16;;;;;;;0.60;0.10;;;;;;;;;;5034267;28;20025;-66
2021/10/28 16:44:44;;;;;;;0.83;0.10;;;;;;;;;;5033855;28;20489;-66
2021/10/28 16:47:09;;;;;;;0.85;0.20;;;;;;;;;;5034213;28;20733;-65
2021/10/28 16:49:35;;;;;;;1.55;0.30;;;;;;;;;;5033997;28;20025;-66
2021/10/28 16:52:00;;;;;;;1.02;0.32;;;;;;;;;;5033826;28;20029;-67
2021/10/28 16:54:26;;;;;;;1.25;0.10;;;;;;;;;;5034081;28;20060;-66
2021/10/28 16:56:51;;;;;;;0.30;0.10;;;;;;;;;;5033772;28;20029;-67
2021/10/28 16:59:16;;;;;;;0.30;0.10;;;;;;;;;;5033399;28;20032;-66
2021/10/28 17:01:42;;;;;;;0.30;0.20;;;;;;;;;;5033482;28;20785;-66
2021/10/28 17:04:07;;;;;;;0.65;0.20;;;;;;;;;;5033967;28;20510;-66
2021/10/28 17:06:32;;;;;;;0.10;0.10;;;;;;;;;;5033758;28;20028;-66
2021/10/28 17:08:59;;;;;;;0.10;0.10;;;;;;;;;;5033631;28;20014;-66
2021/10/28 17:11:27;;;;;;;1.58;0.47;;;;;;;;;;5033733;28;20025;-67
2021/10/28 17:13:52;;;;;;;0.22;0.00;;;;;;;;;;5033543;28;20047;-67
2021/10/28 17:16:17;;;;;;;0.70;0.10;;;;;;;;;;5033711;28;20515;-66
2021/10/28 17:18:42;;;;;;;0.95;0.40;;;;;;;;;;5033616;28;20029;-66
2021/10/28 17:21:08;;;;;;;0.22;0.15;;;;;;;;;;5033692;28;20029;-66
2021/10/28 17:23:35;;;;;;;0.40;0.20;;;;;;;;;;5033504;28;20144;-65
2021/10/28 17:26:03;;;;;;;0.57;0.10;;;;;;;;;;5033315;28;20242;-66
2021/10/28 17:28:28;;;;;;;0.60;0.13;;;;;;;;;;5033620;28;20017;-66
2021/10/28 17:30:54;;;;;;;1.05;0.10;;;;;;;;;;5032787;28;20056;-66
2021/10/28 17:33:19;;;;;;;0.05;0.00;;;;;;;;;;5033590;28;20037;-67
2021/10/28 17:35:44;;;;;;;0.35;0.20;;;;;;;;;;5033463;28;20060;-66
2021/10/28 17:38:09;;;;;;;1.50;0.10;;;;;;;;;;5033234;28;20510;-66
2021/10/28 17:40:35;;;;;;;2.55;0.50;;;;;;;;;;5033175;28;20025;-66
2021/10/28 17:43:00;;;;;;;0.10;0.10;;;;;;;;;;5033327;28;20017;-65
2021/10/28 17:45:27;;;;;;;0.47;0.10;;;;;;;;;;5033333;28;20453;-66
2021/10/28 17:47:53;;;;;;;0.20;0.10;;;;;;;;;;5032919;28;20056;-66
2021/10/28 17:50:19;;;;;;;0.80;0.22;;;;;;;;;;5033175;28;20404;-65
2021/10/28 17:52:44;;;;;;;0.93;0.30;;;;;;;;;;5031796;28;20040;-67
2021/10/28 17:55:09;;;;;;;0.32;0.20;;;;;;;;;;5033182;28;20029;-66
2021/10/28 17:57:36;;;;;;;1.23;0.00;;;;;;;;;;5032865;28;20021;-66
2021/10/28 18:00:03;;;;;;;1.15;0.32;;;;;;;;;;5033159;28;20017;-67
2021/10/28 18:02:28;;;;;;;0.28;0.10;;;;;;;;;;5032768;28;20044;-66
2021/10/28 18:04:53;;;;;;;0.73;0.47;;;;;;;;;;5032933;28;20017;-66
2021/10/28 18:07:19;;;;;;;0.40;0.22;;;;;;;;;;5033154;28;20032;-66
2021/10/28 18:09:44;;;;;;;0.40;0.15;;;;;;;;;;5032824;28;20024;-66
2021/10/28 18:12:10;;;;;;;0.95;0.47;;;;;;;;;;5035348;28;20380;-66
2021/10/28 18:14:38;;;;;;;0.30;0.17;;;;;;;;;;5036783;28;20041;-66
2021/10/28 18:17:03;;;;;;;0.22;0.13;;;;;;;;;;5036864;28;20017;-65
2021/10/28 18:19:28;;;;;;;1.25;0.20;;;;;;;;;;5037048;28;20029;-67
2021/10/28 18:21:55;;;;;;;0.05;0.00;;;;;;;;;;5036714;28;20036;-66
2021/10/28 18:24:25;;;;;;;0.65;0.20;;;;;;;;;;5036948;28;20017;-65
2021/10/28 18:26:51;;;;;;;0.30;0.13;;;;;;;;;;5036868;28;20017;-66
2021/10/28 18:29:17;;;;;;;0.57;0.15;;;;;;;;;;5035650;28;20027;-66
2021/10/28 18:31:43;;;;;;;0.28;0.20;;;;;;;;;;5036511;28;20100;-67
2021/10/28 18:34:09;;;;;;;1.02;0.10;;;;;;;;;;5036783;28;20026;-66
2021/10/28 18:36:36;;;;;;;0.30;0.10;;;;;;;;;;5036298;28;20071;-66
2021/10/28 18:39:04;;;;;;;0.52;0.20;;;;;;;;;;5036783;28;20021;-67
2021/10/28 18:41:29;;;;;;;0.70;0.30;;;;;;;;;;5036557;28;20117;-66
2021/10/28 18:43:55;;;;;;;0.20;0.10;;;;;;;;;;5036521;28;20104;-66
2021/10/28 18:46:22;;;;;;;0.50;0.10;;;;;;;;;;5036277;28;20347;-66
2021/10/28 18:48:51;;;;;;;0.50;0.20;;;;;;;;;;5036375;28;20017;-66
2021/10/28 18:51:16;;;;;;;0.63;0.00;;;;;;;;;;5036428;28;20362;-66
2021/10/28 18:53:44;;;;;;;0.00;0.00;;;;;;;;;;5036217;28;20147;-66
2021/10/28 18:56:10;;;;;;;0.22;0.03;;;;;;;;;;5036520;28;20025;-65
2021/10/28 18:58:35;;;;;;;0.60;0.15;;;;;;;;;;5035986;28;20477;-66
2021/10/28 19:01:00;;;;;;;0.30;0.10;;;;;;;;;;5035811;28;20038;-65
2021/10/28 19:03:26;;;;;;;0.10;0.00;;;;;;;;;;5035998;28;20527;-65
2021/10/28 19:05:55;;;;;;;0.25;0.10;;;;;;;;;;5035645;28;20013;-66
2021/10/28 19:08:21;;;;;;;0.80;0.40;;;;;;;;;;5036147;28;20024;-66
2021/10/28 19:10:46;;;;;;;0.52;0.10;;;;;;;;;;5035576;28;20104;-67
2021/10/28 19:13:12;;;;;;;0.30;0.10;;;;;;;;;;5035945;28;20029;-66
2021/10/28 19:15:38;;;;;;;0.25;0.10;;;;;;;;;;5035863;28;20017;-66
2021/10/28 19:18:05;;;;;;;0.25;0.25;;;;;;;;;;5036008;28;20021;-66
2021/10/28 19:20:31;;;;;;;0.20;0.00;;;;;;;;;;5035479;28;20032;-66
2021/10/28 19:22:56;;;;;;;0.40;0.17;;;;;;;;;;5035388;28;20014;-65
2021/10/28 19:25:21;;;;;;;0.45;0.15;;;;;;;;;;5035749;28;20060;-67
2021/10/28 19:27:49;;;;;;;0.20;0.10;;;;;;;;;;5035407;28;20017;-65
2021/10/28 19:32:39;;;;;;;2.60;0.47;;;;;;;;;;5035923;28;20071;-67
2021/10/28 19:35:05;;;;;;;1.05;0.10;;;;;;;;;;5035814;28;20101;-66
2021/10/28 19:47:46;;;;;;;1.00;0.20;;;;;;;;;;5035508;28;20021;-65
2021/10/28 19:50:12;;;;;;;0.40;0.13;;;;;;;;;;5035336;28;20033;-65
2021/10/28 19:52:41;;;;;;;0.55;0.20;;;;;;;;;;5035147;28;20021;-65
2021/10/28 19:55:07;;;;;;;1.00;0.38;;;;;;;;;;5035151;28;20037;-65
2021/10/28 19:57:36;;;;;;;0.55;0.20;;;;;;;;;;5035005;28;20373;-66
2021/10/28 20:00:17;;;;;;;0.60;0.10;;;;;;;;;;5035180;28;20021;-66
2021/10/28 20:08:03;;;;;;;0.28;0.10;;;;;;;;;;5034830;28;20056;-65
2021/10/28 20:21:05;;;;;;;1.33;0.30;;;;;;;;;;5034977;28;20491;-66
2021/10/28 20:23:30;;;;;;;1.75;0.20;;;;;;;;;;5034667;28;20026;-66
2021/10/28 20:25:56;;;;;;;0.20;0.20;;;;;;;;;;5034533;28;20108;-66
2021/10/28 20:28:21;;;;;;;0.20;0.10;;;;;;;;;;5034468;28;20052;-66
2021/10/28 20:30:58;;;;;;;0.80;0.25;;;;;;;;;;5034326;28;20021;-65
2021/10/28 20:33:26;;;;;;;0.30;0.20;;;;;;;;;;5034229;28;20021;-67
2021/10/28 20:36:10;;;;;;;0.65;0.20;;;;;;;;;;5033874;28;20044;-65
2021/10/28 20:38:36;;;;;;;0.10;0.03;;;;;;;;;;5034291;28;20460;-65
2021/10/28 20:41:01;;;;;;;0.40;0.20;;;;;;;;;;5034385;28;20060;-66
2021/10/28 20:43:26;;;;;;;0.22;0.10;;;;;;;;;;5034022;28;20014;-66
2021/10/28 20:45:52;;;;;;;1.33;0.28;;;;;;;;;;5034186;28;20421;-66
2021/10/28 20:48:17;;;;;;;0.38;0.10;;;;;;;;;;5034448;28;20025;-66
2021/10/28 20:50:42;;;;;;;0.28;0.10;;;;;;;;;;5033879;28;20055;-65
2021/10/28 20:53:09;;;;;;;0.52;0.45;;;;;;;;;;5034080;28;20026;-66
2021/10/28 20:55:34;;;;;;;0.50;0.30;;;;;;;;;;5033857;28;20029;-66
2021/10/28 20:57:59;;;;;;;0.30;0.27;;;;;;;;;;5033934;28;20051;-65
2021/10/28 21:00:25;;;;;;;0.85;0.45;;;;;;;;;;5033495;28;20745;-65
2021/10/28 21:02:50;;;;;;;0.32;0.17;;;;;;;;;;5033550;28;20091;-64
2021/10/28 21:05:20;;;;;;;1.38;0.20;;;;;;;;;;5033754;28;20071;-65
2021/10/28 21:07:46;;;;;;;1.08;0.45;;;;;;;;;;5033754;28;20056;-66
2021/10/28 21:10:13;;;;;;;0.25;0.20;;;;;;;;;;5033484;28;20013;-66
2021/10/28 21:12:38;;;;;;;0.40;0.13;;;;;;;;;;5032330;28;20014;-66
2021/10/28 21:15:04;;;;;;;0.50;0.22;;;;;;;;;;5033442;28;20495;-66
2021/10/28 21:17:29;;;;;;;0.30;0.20;;;;;;;;;;5032520;28;20033;-66
2021/10/28 21:19:54;;;;;;;0.75;0.38;;;;;;;;;;5033629;28;20039;-67
2021/10/28 21:22:20;;;;;;;0.45;0.20;;;;;;;;;;5033721;28;20499;-66
2021/10/28 21:24:48;;;;;;;0.68;0.20;;;;;;;;;;5033316;28;20461;-66
2021/10/28 21:27:13;;;;;;;0.20;0.20;;;;;;;;;;5033652;28;20025;-66
2021/10/28 21:29:39;;;;;;;0.57;0.20;;;;;;;;;;5032124;28;20013;-66
2021/10/28 21:32:05;;;;;;;0.40;0.30;;;;;;;;;;5033209;28;20035;-65
2021/10/28 21:34:30;;;;;;;0.28;0.13;;;;;;;;;;5033513;28;20029;-66
2021/10/28 21:36:56;;;;;;;0.73;0.20;;;;;;;;;;5033315;28;20164;-65
2021/10/28 21:39:21;;;;;;;0.77;0.40;;;;;;;;;;5033226;28;20338;-66
2021/10/28 21:41:46;;;;;;;0.40;0.20;;;;;;;;;;5033022;28;20152;-67
2021/10/28 21:44:16;;;;;;;0.95;0.17;;;;;;;;;;5032175;28;20503;-65
2021/10/28 21:46:42;;;;;;;1.08;0.03;;;;;;;;;;5032986;28;20017;-67
2021/10/28 21:49:07;;;;;;;0.20;0.20;;;;;;;;;;5033114;28;20013;-66
2021/10/28 21:51:32;;;;;;;0.20;0.10;;;;;;;;;;5033215;28;20104;-65
2021/10/28 21:54:00;;;;;;;0.60;0.28;;;;;;;;;;5032937;28;20022;-65
2021/10/28 21:56:33;;;;;;;0.65;0.30;;;;;;;;;;5033263;28;20021;-66
2021/10/28 22:01:44;;;;;;;0.85;0.40;;;;;;;;;;5032746;28;20121;-66
2021/10/28 22:25:43;;;;;;;0.38;0.10;;;;;;;;;;5033108;28;20024;-65
2021/10/28 22:28:09;;;;;;;0.10;0.10;;;;;;;;;;5033056;28;20029;-66
2021/10/28 22:30:34;;;;;;;0.52;0.15;;;;;;;;;;5032703;28;20384;-67
2021/10/28 22:33:00;;;;;;;1.40;0.38;;;;;;;;;;5031284;28;20045;-66
2021/10/28 22:35:33;;;;;;;0.80;0.20;;;;;;;;;;5033085;28;20461;-66
2021/10/28 22:38:01;;;;;;;0.10;0.10;;;;;;;;;;5032840;28;20478;-66
2021/10/28 22:40:34;;;;;;;0.65;0.20;;;;;;;;;;5032862;28;20025;-65
2021/10/28 22:43:00;;;;;;;0.73;0.20;;;;;;;;;;5032837;28;20025;-67
2021/10/28 22:45:25;;;;;;;1.35;0.20;;;;;;;;;;5033002;28;20021;-66
2021/10/28 22:47:50;;;;;;;0.55;0.13;;;;;;;;;;5032514;28;20049;-65
2021/10/28 22:50:16;;;;;;;0.40;0.27;;;;;;;;;;5032758;28;20022;-66
2021/10/28 22:52:45;;;;;;;0.82;0.70;;;;;;;;;;5032428;28;20270;-67
2021/10/28 22:55:12;;;;;;;0.43;0.30;;;;;;;;;;5032478;28;20021;-66
2021/10/28 23:00:09;;;;;;;1.00;0.20;;;;;;;;;;5036292;28;20029;-66
2021/10/28 23:02:59;;;;;;;0.30;0.10;;;;;;;;;;5036099;28;20144;-66
2021/10/28 23:05:37;;;;;;;0.20;0.17;;;;;;;;;;5036145;28;20018;-66
2021/10/28 23:16:22;;;;;;;0.30;0.20;;;;;;;;;;4955742;29;20032;-66
2021/10/28 23:21:22;;;;;;;;;;;;;;;;;;4956104;29;20565;-66
2021/10/28 23:23:47;;;;;;;0.60;0.30;;;;;;;;;;4955414;29;20005;-65
2021/10/28 23:26:12;;;;;;;0.35;0.20;;;;;;;;;;4955440;29;20258;-65
2021/10/28 23:28:38;;;;;;;0.45;0.20;;;;;;;;;;4955236;29;20062;-67
2021/10/28 23:31:03;;;;;;;0.20;0.20;;;;;;;;;;4939185;29;20474;-66
2021/10/28 23:33:28;;;;;;;0.20;0.20;;;;;;;;;;4955435;29;20486;-66
2021/10/28 23:35:53;;;;;;;0.60;0.28;;;;;;;;;;4955378;29;20074;-67
2021/10/28 23:38:19;;;;;;;0.70;0.30;;;;;;;;;;4955375;29;20122;-66
2021/10/28 23:40:44;;;;;;;0.40;0.40;;;;;;;;;;4955033;29;20023;-66
2021/10/28 23:43:09;;;;;;;0.77;0.30;;;;;;;;;;4955031;29;20430;-66